createdAt,value
2019-05-29T00:00:55.891Z,89.17
2019-05-29T00:01:55.815Z,88.82
2019-05-29T00:02:55.816Z,89.06
2019-05-29T00:03:56.091Z,89.06
2019-05-29T00:04:55.798Z,89.37
2019-05-29T00:05:55.768Z,89.27
2019-05-29T00:06:55.761Z,89.17
2019-05-29T00:07:55.746Z,89.17
2019-05-29T00:08:55.749Z,89.27
2019-05-29T00:09:55.754Z,89.37
2019-05-29T00:10:55.722Z,89.58
2019-05-29T00:11:55.719Z,89.17
2019-05-29T00:12:55.717Z,90.44
2019-05-29T00:13:55.678Z,89.31
2019-05-29T00:14:55.702Z,90.34
2019-05-29T00:15:55.665Z,89.27
2019-05-29T00:16:55.658Z,89.31
2019-05-29T00:17:55.641Z,88.90
2019-05-29T00:18:58.279Z,88.90
2019-05-29T00:19:55.634Z,90.13
2019-05-29T00:20:55.608Z,90.54
2019-05-29T00:21:55.590Z,90.23
2019-05-29T00:22:55.583Z,89.92
2019-05-29T00:23:55.584Z,90.13
2019-05-29T00:24:55.590Z,90.03
2019-05-29T00:25:55.546Z,90.13
2019-05-29T00:26:55.581Z,89.72
2019-05-29T00:27:55.526Z,90.13
2019-05-29T00:28:55.517Z,90.03
2019-05-29T00:29:55.537Z,90.13
2019-05-29T00:30:55.494Z,90.34
2019-05-29T00:31:55.480Z,90.13
2019-05-29T00:32:55.479Z,90.13
2019-05-29T00:33:55.457Z,89.76
2019-05-29T00:34:55.606Z,90.58
2019-05-29T00:35:55.454Z,90.99
2019-05-29T00:36:55.434Z,90.69
2019-05-29T00:37:55.427Z,90.99
2019-05-29T00:38:55.404Z,91.61
2019-05-29T00:39:55.416Z,91.40
2019-05-29T00:40:55.388Z,91.61
2019-05-29T00:41:55.431Z,92.22
2019-05-29T00:42:55.363Z,92.32
2019-05-29T00:43:55.348Z,92.38
2019-05-29T00:44:55.361Z,91.71
2019-05-29T00:45:55.337Z,91.61
2019-05-29T00:46:55.317Z,91.30
2019-05-29T00:47:55.310Z,92.43
2019-05-29T00:48:55.328Z,92.53
2019-05-29T00:49:55.303Z,92.32
2019-05-29T00:50:55.271Z,92.22
2019-05-29T00:51:55.296Z,91.61
2019-05-29T00:52:55.251Z,92.53
2019-05-29T00:53:55.258Z,92.53
2019-05-29T00:54:55.264Z,92.57
2019-05-29T00:55:55.230Z,92.47
2019-05-29T00:56:55.213Z,92.78
2019-05-29T00:57:55.195Z,92.51
2019-05-29T00:58:55.202Z,92.82
2019-05-29T00:59:55.198Z,93.02
2019-05-29T01:00:55.190Z,93.64
2019-05-29T01:01:55.176Z,94.05
2019-05-29T01:02:55.168Z,93.19
2019-05-29T01:03:55.125Z,93.74
2019-05-29T01:04:55.131Z,93.44
2019-05-29T01:05:55.147Z,93.64
2019-05-29T01:06:55.138Z,93.79
2019-05-29T01:07:55.078Z,94.51
2019-05-29T01:08:55.069Z,94.51
2019-05-29T01:09:55.061Z,94.10
2019-05-29T01:10:55.083Z,94.30
2019-05-29T01:11:55.046Z,94.55
2019-05-29T01:12:55.067Z,94.34
2019-05-29T01:13:55.016Z,94.61
2019-05-29T01:14:55.023Z,94.24
2019-05-29T01:15:55.038Z,95.17
2019-05-29T01:16:54.982Z,95.06
2019-05-29T01:17:54.983Z,95.57
2019-05-29T01:18:54.978Z,94.76
2019-05-29T01:19:54.948Z,94.76
2019-05-29T01:20:54.961Z,94.24
2019-05-29T01:21:54.939Z,93.73
2019-05-29T01:22:54.914Z,93.93
2019-05-29T01:23:54.917Z,93.73
2019-05-29T01:24:54.889Z,94.29
2019-05-29T01:25:54.908Z,94.49
2019-05-29T01:26:54.874Z,93.67
2019-05-29T01:27:54.854Z,94.64
2019-05-29T01:28:54.863Z,94.59
2019-05-29T01:29:54.836Z,94.54
2019-05-29T01:30:54.850Z,94.64
2019-05-29T01:31:54.822Z,94.74
2019-05-29T01:32:54.806Z,94.02
2019-05-29T01:33:54.823Z,94.39
2019-05-29T01:34:54.779Z,94.43
2019-05-29T01:35:54.805Z,93.67
2019-05-29T01:36:54.760Z,93.05
2019-05-29T01:37:54.749Z,92.85
2019-05-29T01:38:54.755Z,92.58
2019-05-29T01:39:54.744Z,92.27
2019-05-29T01:40:54.757Z,92.85
2019-05-29T01:41:54.702Z,91.82
2019-05-29T01:42:54.688Z,92.27
2019-05-29T01:43:54.681Z,90.89
2019-05-29T01:45:07.158Z,90.59
2019-05-29T01:45:55.707Z,90.14
2019-05-29T01:46:54.667Z,90.38
2019-05-29T01:47:54.634Z,90.24
2019-05-29T01:48:54.642Z,90.38
2019-05-29T01:49:54.610Z,89.76
2019-05-29T01:50:54.634Z,90.28
2019-05-29T01:51:54.591Z,90.03
2019-05-29T01:52:54.591Z,89.93
2019-05-29T01:53:54.566Z,89.46
2019-05-29T01:54:54.556Z,89.87
2019-05-29T01:55:54.583Z,90.28
2019-05-29T01:56:54.535Z,90.28
2019-05-29T01:57:54.528Z,91.04
2019-05-29T01:58:54.511Z,91.55
2019-05-29T01:59:54.512Z,91.39
2019-05-29T02:00:54.493Z,93.04
2019-05-29T02:01:54.511Z,92.58
2019-05-29T02:02:54.474Z,92.73
2019-05-29T02:03:54.473Z,92.69
2019-05-29T02:04:54.456Z,92.63
2019-05-29T02:05:54.434Z,92.73
2019-05-29T02:06:54.449Z,92.77
2019-05-29T02:07:54.413Z,92.97
2019-05-29T02:08:54.404Z,92.71
2019-05-29T02:09:54.407Z,93.54
2019-05-29T02:10:54.378Z,94.36
2019-05-29T02:11:54.401Z,93.29
2019-05-29T02:12:54.360Z,92.36
2019-05-29T02:13:54.353Z,92.67
2019-05-29T02:14:54.346Z,92.97
2019-05-29T02:15:54.332Z,92.67
2019-05-29T02:16:54.337Z,92.73
2019-05-29T02:17:54.299Z,91.85
2019-05-29T02:18:54.292Z,91.29
2019-05-29T02:19:54.292Z,91.29
2019-05-29T02:20:54.291Z,90.88
2019-05-29T02:21:54.287Z,91.08
2019-05-29T02:22:54.245Z,90.88
2019-05-29T02:23:54.254Z,90.88
2019-05-29T02:24:54.227Z,90.81
2019-05-29T02:25:54.255Z,91.02
2019-05-29T02:26:54.230Z,90.92
2019-05-29T02:27:54.190Z,91.44
2019-05-29T02:28:54.188Z,90.51
2019-05-29T02:29:54.224Z,90.81
2019-05-29T02:30:54.207Z,90.72
2019-05-29T02:31:54.193Z,90.61
2019-05-29T02:32:54.141Z,90.00
2019-05-29T02:33:54.164Z,89.89
2019-05-29T02:34:54.125Z,89.28
2019-05-29T02:35:54.110Z,89.48
2019-05-29T02:36:54.109Z,89.69
2019-05-29T02:37:54.113Z,90.00
2019-05-29T02:38:54.071Z,89.38
2019-05-29T02:39:54.065Z,90.00
2019-05-29T02:40:54.057Z,89.48
2019-05-29T02:41:54.039Z,89.62
2019-05-29T02:42:54.070Z,90.96
2019-05-29T02:43:54.019Z,90.51
2019-05-29T02:44:54.006Z,89.62
2019-05-29T02:45:55.193Z,90.55
2019-05-29T02:46:54.002Z,91.06
2019-05-29T02:47:54.005Z,91.06
2019-05-29T02:48:53.967Z,91.13
2019-05-29T02:49:53.965Z,90.96
2019-05-29T02:50:53.937Z,90.20
2019-05-29T02:51:53.934Z,90.34
2019-05-29T02:52:53.975Z,90.86
2019-05-29T02:53:53.905Z,90.75
2019-05-29T02:54:53.914Z,91.99
2019-05-29T02:55:53.887Z,91.47
2019-05-29T02:56:53.884Z,91.27
2019-05-29T02:57:53.936Z,91.99
2019-05-29T02:58:53.862Z,92.14
2019-05-29T02:59:53.853Z,93.02
2019-05-29T03:00:53.871Z,91.99
2019-05-29T03:01:53.831Z,92.86
2019-05-29T03:02:53.841Z,92.44
2019-05-29T03:03:53.800Z,92.82
2019-05-29T03:04:53.793Z,92.20
2019-05-29T03:05:53.778Z,91.47
2019-05-29T03:06:53.765Z,91.06
2019-05-29T03:07:53.797Z,91.52
2019-05-29T03:08:53.778Z,91.00
2019-05-29T03:09:53.767Z,91.52
2019-05-29T03:10:53.720Z,91.72
2019-05-29T03:11:53.712Z,91.93
2019-05-29T03:12:53.720Z,92.34
2019-05-29T03:13:53.729Z,91.21
2019-05-29T03:14:53.685Z,92.03
2019-05-29T03:16:09.783Z,92.55
2019-05-29T03:16:54.681Z,92.44
2019-05-29T03:17:53.645Z,92.61
2019-05-29T03:18:53.687Z,92.86
2019-05-29T03:19:53.628Z,93.06
2019-05-29T03:20:53.627Z,92.03
2019-05-29T03:21:53.597Z,92.65
2019-05-29T03:22:53.593Z,92.44
2019-05-29T03:23:53.620Z,91.93
2019-05-29T03:24:53.574Z,91.83
2019-05-29T03:25:53.576Z,92.24
2019-05-29T03:26:53.577Z,92.03
2019-05-29T03:27:53.541Z,92.44
2019-05-29T03:28:53.562Z,92.55
2019-05-29T03:29:53.517Z,92.10
2019-05-29T03:30:53.532Z,92.24
2019-05-29T03:31:53.517Z,92.76
2019-05-29T03:32:53.499Z,92.65
2019-05-29T03:33:53.498Z,93.06
2019-05-29T03:34:53.507Z,92.86
2019-05-29T03:35:53.462Z,92.96
2019-05-29T03:36:53.448Z,92.96
2019-05-29T03:37:53.441Z,92.65
2019-05-29T03:38:53.450Z,92.03
2019-05-29T03:39:53.406Z,92.96
2019-05-29T03:40:53.423Z,92.76
2019-05-29T03:41:53.388Z,92.96
2019-05-29T03:42:53.371Z,93.37
2019-05-29T03:43:53.405Z,92.55
2019-05-29T03:44:53.362Z,92.96
2019-05-29T03:45:53.340Z,94.24
2019-05-29T03:46:53.342Z,93.52
2019-05-29T03:47:53.325Z,93.62
2019-05-29T03:48:53.335Z,94.65
2019-05-29T03:49:53.294Z,94.13
2019-05-29T03:50:53.281Z,94.76
2019-05-29T03:51:53.282Z,94.85
2019-05-29T03:52:53.272Z,95.68
2019-05-29T03:53:53.277Z,95.43
2019-05-29T03:54:53.247Z,94.51
2019-05-29T03:55:53.259Z,93.93
2019-05-29T03:56:53.223Z,93.87
2019-05-29T03:57:53.210Z,95.10
2019-05-29T03:58:53.234Z,94.76
2019-05-29T03:59:53.191Z,94.85
2019-05-29T04:00:53.173Z,94.55
2019-05-29T04:01:53.158Z,95.00
2019-05-29T04:02:53.161Z,95.10
2019-05-29T04:03:53.167Z,94.80
2019-05-29T04:04:53.155Z,95.06
2019-05-29T04:05:53.129Z,95.58
2019-05-29T04:06:53.106Z,95.58
2019-05-29T04:07:53.098Z,95.58
2019-05-29T04:08:53.090Z,94.85
2019-05-29T04:09:53.100Z,94.76
2019-05-29T04:10:53.089Z,95.06
2019-05-29T04:11:53.060Z,95.02
2019-05-29T04:12:53.057Z,95.02
2019-05-29T04:13:53.050Z,95.53
2019-05-29T04:14:53.083Z,94.71
2019-05-29T04:15:53.016Z,94.77
2019-05-29T04:16:59.793Z,94.15
2019-05-29T04:17:53.985Z,93.90
2019-05-29T04:18:52.971Z,93.54
2019-05-29T04:19:53.001Z,92.77
2019-05-29T04:20:52.961Z,92.83
2019-05-29T04:21:52.962Z,91.49
2019-05-29T04:22:52.945Z,91.60
2019-05-29T04:23:52.922Z,90.47
2019-05-29T04:24:52.940Z,90.67
2019-05-29T04:25:52.918Z,89.75
2019-05-29T04:26:52.891Z,89.81
2019-05-29T04:27:52.888Z,90.78
2019-05-29T04:28:52.864Z,89.81
2019-05-29T04:29:52.879Z,89.91
2019-05-29T04:30:52.838Z,89.56
2019-05-29T04:31:52.835Z,88.53
2019-05-29T04:32:52.839Z,88.53
2019-05-29T04:33:52.804Z,88.59
2019-05-29T04:34:52.817Z,86.85
2019-05-29T04:35:52.799Z,86.13
2019-05-29T04:36:52.785Z,86.65
2019-05-29T04:37:52.765Z,86.85
2019-05-29T04:38:52.759Z,87.73
2019-05-29T04:39:52.748Z,87.22
2019-05-29T04:40:52.756Z,85.85
2019-05-29T04:41:52.719Z,85.33
2019-05-29T04:42:52.710Z,85.13
2019-05-29T04:43:56.866Z,85.33
2019-05-29T04:44:52.689Z,84.99
2019-05-29T04:45:52.708Z,85.71
2019-05-29T04:47:09.489Z,85.77
2019-05-29T04:47:53.649Z,84.33
2019-05-29T04:48:52.654Z,83.72
2019-05-29T04:49:52.626Z,82.55
2019-05-29T04:50:52.640Z,82.79
2019-05-29T04:51:52.649Z,82.76
2019-05-29T04:52:52.594Z,82.76
2019-05-29T04:53:52.596Z,82.04
2019-05-29T04:54:52.579Z,81.22
2019-05-29T04:55:52.583Z,81.01
2019-05-29T04:56:52.550Z,79.89
2019-05-29T04:57:52.538Z,80.91
2019-05-29T04:58:52.532Z,80.19
2019-05-29T04:59:52.513Z,79.68
2019-05-29T05:00:59.130Z,79.54
2019-05-29T05:01:53.489Z,79.64
2019-05-29T05:02:52.480Z,80.16
2019-05-29T05:03:52.470Z,78.97
2019-05-29T05:04:52.461Z,79.64
2019-05-29T05:05:52.488Z,78.66
2019-05-29T05:06:52.437Z,78.76
2019-05-29T05:07:52.433Z,79.64
2019-05-29T05:08:52.424Z,79.61
2019-05-29T05:09:52.405Z,78.08
2019-05-29T05:10:52.417Z,78.69
2019-05-29T05:11:52.382Z,79.10
2019-05-29T05:12:52.445Z,78.08
2019-05-29T05:13:52.358Z,77.87
2019-05-29T05:14:52.349Z,77.94
2019-05-29T05:15:52.359Z,78.14
2019-05-29T05:16:52.352Z,78.34
2019-05-29T05:17:52.327Z,78.14
2019-05-29T05:18:52.308Z,78.41
2019-05-29T05:19:52.293Z,78.00
2019-05-29T05:20:52.328Z,78.31
2019-05-29T05:21:52.272Z,76.88
2019-05-29T05:22:52.265Z,76.57
2019-05-29T05:23:52.251Z,77.59
2019-05-29T05:24:52.237Z,76.98
2019-05-29T05:25:52.228Z,77.19
2019-05-29T05:26:52.243Z,75.75
2019-05-29T05:27:52.204Z,75.31
2019-05-29T05:28:52.223Z,76.98
2019-05-29T05:29:52.181Z,76.84
2019-05-29T05:30:52.186Z,76.50
2019-05-29T05:31:52.185Z,76.50
2019-05-29T05:32:52.153Z,76.81
2019-05-29T05:33:52.160Z,74.46
2019-05-29T05:34:52.129Z,74.46
2019-05-29T05:35:52.126Z,74.56
2019-05-29T05:36:52.153Z,76.50
2019-05-29T05:37:52.094Z,75.44
2019-05-29T05:38:52.083Z,74.42
2019-05-29T05:39:52.070Z,74.32
2019-05-29T05:40:52.060Z,73.40
2019-05-29T05:41:52.074Z,72.82
2019-05-29T05:42:52.040Z,74.49
2019-05-29T05:43:52.037Z,74.49
2019-05-29T05:44:52.020Z,75.48
2019-05-29T05:45:52.009Z,74.87
2019-05-29T05:46:52.047Z,74.46
2019-05-29T05:47:57.314Z,73.33
2019-05-29T05:48:53.057Z,74.35
2019-05-29T05:49:51.963Z,74.35
2019-05-29T05:50:51.961Z,74.76
2019-05-29T05:51:51.963Z,74.46
2019-05-29T05:52:51.929Z,74.35
2019-05-29T05:53:51.920Z,74.42
2019-05-29T05:54:51.933Z,73.19
2019-05-29T05:55:51.894Z,74.29
2019-05-29T05:56:53.593Z,72.75
2019-05-29T05:57:51.916Z,72.45
2019-05-29T05:58:51.882Z,71.84
2019-05-29T05:59:51.850Z,72.14
2019-05-29T06:00:51.844Z,72.65
2019-05-29T06:01:51.852Z,71.33
2019-05-29T06:02:52.336Z,71.94
2019-05-29T06:03:51.831Z,72.24
2019-05-29T06:04:51.792Z,71.73
2019-05-29T06:05:51.813Z,72.41
2019-05-29T06:06:51.830Z,70.89
2019-05-29T06:07:51.763Z,71.50
2019-05-29T06:08:51.774Z,71.70
2019-05-29T06:09:51.742Z,70.98
2019-05-29T06:10:51.767Z,71.19
2019-05-29T06:11:51.734Z,70.65
2019-05-29T06:12:51.722Z,70.27
2019-05-29T06:13:51.695Z,70.07
2019-05-29T06:14:51.726Z,69.76
2019-05-29T06:15:51.698Z,71.09
2019-05-29T06:16:51.697Z,70.44
2019-05-29T06:18:16.930Z,70.92
2019-05-29T06:18:52.655Z,70.14
2019-05-29T06:19:58.290Z,69.90
2019-05-29T06:20:51.632Z,70.51
2019-05-29T06:21:51.643Z,69.70
2019-05-29T06:22:51.756Z,70.89
2019-05-29T06:23:51.614Z,69.56
2019-05-29T06:24:51.597Z,69.46
2019-05-29T06:25:51.643Z,69.15
2019-05-29T06:26:51.579Z,68.95
2019-05-29T06:27:51.612Z,69.76
2019-05-29T06:28:51.567Z,70.38
2019-05-29T06:29:51.541Z,68.95
2019-05-29T06:30:51.530Z,69.15
2019-05-29T06:31:51.532Z,68.62
2019-05-29T06:32:51.679Z,67.90
2019-05-29T06:33:51.494Z,69.23
2019-05-29T06:34:51.495Z,69.32
2019-05-29T06:35:51.470Z,68.51
2019-05-29T06:36:51.472Z,68.18
2019-05-29T06:37:51.491Z,68.18
2019-05-29T06:38:51.454Z,68.38
2019-05-29T06:39:51.436Z,68.38
2019-05-29T06:40:51.399Z,67.69
2019-05-29T06:41:51.390Z,67.80
2019-05-29T06:42:51.385Z,68.41
2019-05-29T06:43:51.457Z,68.79
2019-05-29T06:44:51.468Z,68.04
2019-05-29T06:45:51.344Z,68.14
2019-05-29T06:46:51.333Z,67.83
2019-05-29T06:47:51.323Z,67.53
2019-05-29T06:48:59.694Z,66.41
2019-05-29T06:49:52.298Z,65.88
2019-05-29T06:50:52.010Z,65.77
2019-05-29T06:51:51.290Z,66.69
2019-05-29T06:52:51.283Z,66.66
2019-05-29T06:53:51.283Z,65.03
2019-05-29T06:54:51.256Z,64.62
2019-05-29T06:55:53.793Z,64.52
2019-05-29T06:56:51.242Z,64.62
2019-05-29T06:57:51.225Z,64.93
2019-05-29T06:58:51.231Z,64.42
2019-05-29T06:59:51.215Z,63.71
2019-05-29T07:00:51.209Z,64.12
2019-05-29T07:01:51.175Z,62.82
2019-05-29T07:02:51.168Z,65.67
2019-05-29T07:03:51.294Z,63.43
2019-05-29T07:04:51.165Z,62.93
2019-05-29T07:05:52.868Z,64.55
2019-05-29T07:06:51.136Z,62.72
2019-05-29T07:07:51.192Z,62.79
2019-05-29T07:08:51.260Z,64.39
2019-05-29T07:09:51.885Z,62.97
2019-05-29T07:10:51.141Z,63.07
2019-05-29T07:11:51.099Z,64.18
2019-05-29T07:12:51.165Z,61.85
2019-05-29T07:13:51.156Z,61.75
2019-05-29T07:14:51.031Z,62.36
2019-05-29T07:15:51.043Z,62.97
2019-05-29T07:16:55.972Z,62.74
2019-05-29T07:17:52.106Z,62.81
2019-05-29T07:20:03.043Z,61.39
2019-05-29T07:20:51.966Z,62.20
2019-05-29T07:21:50.957Z,63.29
2019-05-29T07:22:50.949Z,61.79
2019-05-29T07:23:50.982Z,61.79
2019-05-29T07:24:50.934Z,61.59
2019-05-29T07:25:50.915Z,61.05
2019-05-29T07:26:50.904Z,60.78
2019-05-29T07:27:50.897Z,62.30
2019-05-29T07:29:07.368Z,61.76
2019-05-29T07:29:51.907Z,61.25
2019-05-29T07:31:00.915Z,60.85
2019-05-29T07:31:51.845Z,59.94
2019-05-29T07:32:57.405Z,60.44
2019-05-29T07:33:51.824Z,61.13
2019-05-29T07:35:02.742Z,60.11
2019-05-29T07:35:51.807Z,59.68
2019-05-29T07:36:50.799Z,57.55
2019-05-29T07:37:50.784Z,57.45
2019-05-29T07:39:02.670Z,58.69
2019-05-29T07:39:51.784Z,59.20
2019-05-29T07:40:50.754Z,59.41
2019-05-29T07:41:50.741Z,57.78
2019-05-29T07:42:56.035Z,58.42
2019-05-29T07:43:51.720Z,58.01
2019-05-29T07:44:50.732Z,57.73
2019-05-29T07:45:50.699Z,59.16
2019-05-29T07:46:50.693Z,56.18
2019-05-29T07:47:50.677Z,57.12
2019-05-29T07:48:50.722Z,56.99
2019-05-29T07:49:50.684Z,55.98
2019-05-29T07:51:06.093Z,57.73
2019-05-29T07:51:51.665Z,56.31
2019-05-29T07:52:50.753Z,56.01
2019-05-29T07:53:50.618Z,56.11
2019-05-29T07:54:50.652Z,56.82
2019-05-29T07:55:50.590Z,56.13
2019-05-29T07:56:50.580Z,57.43
2019-05-29T07:57:50.643Z,57.20
2019-05-29T07:59:01.656Z,58.39
2019-05-29T07:59:51.574Z,53.80
2019-05-29T08:01:09.851Z,52.41
2019-05-29T08:01:51.607Z,55.78
2019-05-29T08:02:50.518Z,56.18
2019-05-29T08:03:50.671Z,56.79
2019-05-29T08:04:50.527Z,55.96
2019-05-29T08:05:52.668Z,55.25
2019-05-29T08:06:54.357Z,53.72
2019-05-29T08:07:50.492Z,55.04
2019-05-29T08:08:50.452Z,54.03
2019-05-29T08:09:50.479Z,54.24
2019-05-29T08:10:50.436Z,53.80
2019-05-29T08:11:50.421Z,53.45
2019-05-29T08:12:55.337Z,52.46
2019-05-29T08:13:51.403Z,52.18
2019-05-29T08:14:50.536Z,53.80
2019-05-29T08:16:01.990Z,51.88
2019-05-29T08:16:51.369Z,51.45
2019-05-29T08:17:50.364Z,50.56
2019-05-29T08:18:52.978Z,52.56
2019-05-29T08:20:03.128Z,54.18
2019-05-29T08:20:51.349Z,53.55
2019-05-29T08:21:50.658Z,52.66
2019-05-29T08:22:50.696Z,50.41
2019-05-29T08:23:50.851Z,50.51
2019-05-29T08:24:51.092Z,52.03
2019-05-29T08:25:51.775Z,51.93
2019-05-29T08:26:51.023Z,52.03
2019-05-29T08:27:50.821Z,54.36
2019-05-29T08:28:51.110Z,51.42
2019-05-29T08:29:51.194Z,51.14
2019-05-29T08:30:55.808Z,51.90
2019-05-29T08:31:51.362Z,52.00
2019-05-29T08:32:51.254Z,52.64
2019-05-29T08:33:51.316Z,53.85
2019-05-29T08:34:51.235Z,52.05
2019-05-29T08:35:57.927Z,54.05
2019-05-29T08:37:05.842Z,55.25
2019-05-29T08:37:51.245Z,55.90
2019-05-29T08:38:51.528Z,54.16
2019-05-29T08:39:50.123Z,54.03
2019-05-29T08:40:50.139Z,53.30
2019-05-29T08:42:17.528Z,51.45
2019-05-29T08:42:51.446Z,52.03
2019-05-29T08:43:50.798Z,50.72
2019-05-29T08:44:50.127Z,51.32
2019-05-29T08:45:50.163Z,51.35
2019-05-29T08:47:04.206Z,49.84
2019-05-29T08:47:51.943Z,49.63
2019-05-29T08:48:52.257Z,51.86
2019-05-29T08:49:54.336Z,51.12
2019-05-29T08:50:50.058Z,46.68
2019-05-29T08:51:50.121Z,48.50
2019-05-29T08:52:50.185Z,49.41
2019-05-29T08:53:52.164Z,49.41
2019-05-29T08:54:50.167Z,46.37
2019-05-29T08:55:50.752Z,47.56
2019-05-29T08:56:50.393Z,45.65
2019-05-29T08:57:50.439Z,46.07
2019-05-29T08:58:50.663Z,46.17
2019-05-29T08:59:50.657Z,45.59
2019-05-29T09:00:53.609Z,47.11
2019-05-29T09:01:52.996Z,48.42
2019-05-29T09:02:51.071Z,49.51
2019-05-29T09:03:51.189Z,49.61
2019-05-29T09:04:51.842Z,46.76
2019-05-29T09:06:04.927Z,46.25
2019-05-29T09:06:51.208Z,48.58
2019-05-29T09:07:50.448Z,47.95
2019-05-29T09:08:50.488Z,47.74
2019-05-29T09:09:51.123Z,47.72
2019-05-29T09:10:51.306Z,49.74
2019-05-29T09:11:50.190Z,48.73
2019-05-29T09:13:01.941Z,46.11
2019-05-29T09:13:50.752Z,41.77
2019-05-29T09:14:49.744Z,45.10
2019-05-29T09:15:49.775Z,44.42
2019-05-29T09:16:49.771Z,44.62
2019-05-29T09:17:49.712Z,44.43
2019-05-29T09:18:49.704Z,43.23
2019-05-29T09:19:49.690Z,41.79
2019-05-29T09:21:02.658Z,40.88
2019-05-29T09:21:50.707Z,42.07
2019-05-29T09:22:49.659Z,42.18
2019-05-29T09:23:49.648Z,43.46
2019-05-29T09:24:49.638Z,42.18
2019-05-29T09:25:49.628Z,42.68
2019-05-29T09:26:49.615Z,43.16
2019-05-29T09:27:49.639Z,41.53
2019-05-29T09:28:49.631Z,42.94
2019-05-29T09:29:49.593Z,40.82
2019-05-29T09:30:49.594Z,42.74
2019-05-29T09:31:49.562Z,40.32
2019-05-29T09:32:52.402Z,40.82
2019-05-29T09:33:49.544Z,40.42
2019-05-29T09:34:49.527Z,38.75
2019-05-29T09:35:49.519Z,41.77
2019-05-29T09:36:49.573Z,43.18
2019-05-29T09:37:49.531Z,40.54
2019-05-29T09:38:49.555Z,40.03
2019-05-29T09:39:49.504Z,40.54
2019-05-29T09:40:52.647Z,41.39
2019-05-29T09:41:49.460Z,41.87
2019-05-29T09:42:49.469Z,43.18
2019-05-29T09:43:59.329Z,40.36
2019-05-29T09:44:50.417Z,41.89
2019-05-29T09:45:49.412Z,42.61
2019-05-29T09:46:49.399Z,42.88
2019-05-29T09:47:49.446Z,38.34
2019-05-29T09:48:50.277Z,38.34
2019-05-29T09:49:49.367Z,40.46
2019-05-29T09:50:50.858Z,41.56
2019-05-29T09:51:49.348Z,41.39
2019-05-29T09:52:49.357Z,42.58
2019-05-29T09:53:49.390Z,42.88
2019-05-29T09:54:49.328Z,44.78
2019-05-29T09:55:49.307Z,42.13
2019-05-29T09:56:49.294Z,41.53
2019-05-29T09:57:49.307Z,40.72
2019-05-29T09:58:49.273Z,40.91
2019-05-29T09:59:49.259Z,42.74
2019-05-29T10:01:05.086Z,42.52
2019-05-29T10:01:50.240Z,42.92
2019-05-29T10:02:49.253Z,41.49
2019-05-29T10:03:49.226Z,41.89
2019-05-29T10:04:49.218Z,41.69
2019-05-29T10:05:49.195Z,43.00
2019-05-29T10:06:49.184Z,41.97
2019-05-29T10:07:49.237Z,40.66
2019-05-29T10:08:49.166Z,40.26
2019-05-29T10:09:49.162Z,40.26
2019-05-29T10:10:49.149Z,41.75
2019-05-29T10:11:49.130Z,41.67
2019-05-29T10:12:49.164Z,42.76
2019-05-29T10:13:49.109Z,43.06
2019-05-29T10:14:51.338Z,41.53
2019-05-29T10:15:49.102Z,40.33
2019-05-29T10:16:49.099Z,38.93
2019-05-29T10:17:49.090Z,40.04
2019-05-29T10:18:49.055Z,41.73
2019-05-29T10:19:49.045Z,37.61
2019-05-29T10:20:49.036Z,37.01
2019-05-29T10:21:49.033Z,40.75
2019-05-29T10:22:49.044Z,42.84
2019-05-29T10:23:49.002Z,42.32
2019-05-29T10:24:48.991Z,40.00
2019-05-29T10:25:48.981Z,41.61
2019-05-29T10:26:48.975Z,40.30
2019-05-29T10:27:48.998Z,41.63
2019-05-29T10:29:02.303Z,39.96
2019-05-29T10:29:52.754Z,42.38
2019-05-29T10:30:50.230Z,42.13
2019-05-29T10:31:49.867Z,40.81
2019-05-29T10:32:50.057Z,39.98
2019-05-29T10:33:50.239Z,40.17
2019-05-29T10:34:48.885Z,39.95
2019-05-29T10:35:49.619Z,40.65
2019-05-29T10:36:51.904Z,40.55
2019-05-29T10:37:48.893Z,37.54
2019-05-29T10:38:48.885Z,39.47
2019-05-29T10:39:49.009Z,39.64
2019-05-29T10:41:00.485Z,38.53
2019-05-29T10:41:50.948Z,37.62
2019-05-29T10:42:49.108Z,37.12
2019-05-29T10:43:49.209Z,35.13
2019-05-29T10:44:49.834Z,35.95
2019-05-29T10:45:49.871Z,40.59
2019-05-29T10:46:51.606Z,39.25
2019-05-29T10:47:49.780Z,36.02
2019-05-29T10:48:52.241Z,38.02
2019-05-29T10:49:49.837Z,39.32
2019-05-29T10:50:51.779Z,35.91
2019-05-29T10:52:05.731Z,37.52
2019-05-29T10:52:49.993Z,37.12
2019-05-29T10:53:50.389Z,37.91
2019-05-29T10:54:48.708Z,38.64
2019-05-29T10:55:48.701Z,37.79
2019-05-29T10:56:48.893Z,38.07
2019-05-29T10:57:49.096Z,38.18
2019-05-29T10:58:54.315Z,37.98
2019-05-29T10:59:50.772Z,39.98
2019-05-29T11:00:49.154Z,41.67
2019-05-29T11:01:49.174Z,41.43
2019-05-29T11:02:50.138Z,37.90
2019-05-29T11:03:49.372Z,37.16
2019-05-29T11:04:52.093Z,38.67
2019-05-29T11:05:49.644Z,37.07
2019-05-29T11:06:50.014Z,39.05
2019-05-29T11:07:49.639Z,37.85
2019-05-29T11:08:49.913Z,37.15
2019-05-29T11:09:48.670Z,37.75
2019-05-29T11:10:48.507Z,38.45
2019-05-29T11:11:48.591Z,35.85
2019-05-29T11:12:48.517Z,34.44
2019-05-29T11:13:48.702Z,34.73
2019-05-29T11:14:48.590Z,36.93
2019-05-29T11:15:48.598Z,37.81
2019-05-29T11:16:49.018Z,38.89
2019-05-29T11:17:49.027Z,39.09
2019-05-29T11:18:49.180Z,35.98
2019-05-29T11:19:49.242Z,34.09
2019-05-29T11:20:49.357Z,37.99
2019-05-29T11:21:49.676Z,37.88
2019-05-29T11:22:49.473Z,37.27
2019-05-29T11:23:49.741Z,34.38
2019-05-29T11:24:48.380Z,35.30
2019-05-29T11:25:48.377Z,35.11
2019-05-29T11:26:48.441Z,35.35
2019-05-29T11:27:48.523Z,36.75
2019-05-29T11:28:48.410Z,35.05
2019-05-29T11:29:48.773Z,36.73
2019-05-29T11:30:48.637Z,34.33
2019-05-29T11:31:48.573Z,38.03
2019-05-29T11:32:50.223Z,35.64
2019-05-29T11:33:48.790Z,35.35
2019-05-29T11:34:48.893Z,35.66
2019-05-29T11:35:57.702Z,35.10
2019-05-29T11:36:49.984Z,35.69
2019-05-29T11:37:48.204Z,36.98
2019-05-29T11:38:48.193Z,37.18
2019-05-29T11:39:48.218Z,37.75
2019-05-29T11:40:48.450Z,38.01
2019-05-29T11:41:48.162Z,36.60
2019-05-29T11:42:48.153Z,35.19
2019-05-29T11:43:48.161Z,36.40
2019-05-29T11:44:48.156Z,35.78
2019-05-29T11:45:48.119Z,34.55
2019-05-29T11:46:48.111Z,33.15
2019-05-29T11:47:48.097Z,32.43
2019-05-29T11:48:48.085Z,33.53
2019-05-29T11:49:48.111Z,35.33
2019-05-29T11:50:48.063Z,34.64
2019-05-29T11:51:48.067Z,37.16
2019-05-29T11:52:48.046Z,37.72
2019-05-29T11:53:48.036Z,35.53
2019-05-29T11:54:48.047Z,32.95
2019-05-29T11:55:48.032Z,34.76
2019-05-29T11:56:48.001Z,37.14
2019-05-29T11:57:47.993Z,35.13
2019-05-29T11:58:47.977Z,34.96
2019-05-29T11:59:47.972Z,35.18
2019-05-29T12:00:47.995Z,36.86
2019-05-29T12:01:50.699Z,37.52
2019-05-29T12:02:47.936Z,37.51
2019-05-29T12:04:15.431Z,35.21
2019-05-29T12:04:48.920Z,35.11
2019-05-29T12:05:47.929Z,32.63
2019-05-29T12:06:47.913Z,32.14
2019-05-29T12:07:47.880Z,33.54
2019-05-29T12:08:47.873Z,34.36
2019-05-29T12:09:47.863Z,35.16
2019-05-29T12:10:47.870Z,35.05
2019-05-29T12:11:47.849Z,35.13
2019-05-29T12:12:47.829Z,35.10
2019-05-29T12:13:47.814Z,31.37
2019-05-29T12:15:03.415Z,34.50
2019-05-29T12:15:48.887Z,35.58
2019-05-29T12:16:47.815Z,34.94
2019-05-29T12:17:47.942Z,35.05
2019-05-29T12:18:47.796Z,34.14
2019-05-29T12:19:47.810Z,33.54
2019-05-29T12:20:48.763Z,35.74
2019-05-29T12:21:47.759Z,34.33
2019-05-29T12:23:11.113Z,33.53
2019-05-29T12:23:48.755Z,35.61
2019-05-29T12:24:47.744Z,35.97
2019-05-29T12:25:47.724Z,35.64
2019-05-29T12:26:47.677Z,34.23
2019-05-29T12:27:47.685Z,31.06
2019-05-29T12:28:47.696Z,32.44
2019-05-29T12:29:47.641Z,34.45
2019-05-29T12:30:47.708Z,33.14
2019-05-29T12:31:47.675Z,32.45
2019-05-29T12:32:47.647Z,34.83
2019-05-29T12:33:47.641Z,34.22
2019-05-29T12:34:53.718Z,32.21
2019-05-29T12:35:50.312Z,30.52
2019-05-29T12:36:47.580Z,33.59
2019-05-29T12:37:47.571Z,29.82
2019-05-29T12:38:47.546Z,30.43
2019-05-29T12:39:47.589Z,32.34
2019-05-29T12:40:47.580Z,31.34
2019-05-29T12:41:47.513Z,32.21
2019-05-29T12:42:47.503Z,32.65
2019-05-29T12:43:47.504Z,33.08
2019-05-29T12:44:47.487Z,32.29
2019-05-29T12:45:47.577Z,33.75
2019-05-29T12:46:47.458Z,31.36
2019-05-29T12:47:47.505Z,32.59
2019-05-29T12:48:47.484Z,32.50
2019-05-29T12:49:47.460Z,31.34
2019-05-29T12:50:47.456Z,31.73
2019-05-29T12:51:47.406Z,33.72
2019-05-29T12:52:48.254Z,31.51
2019-05-29T12:53:48.289Z,30.61